Martin, ND (58758)

11:48 AM CST on January 30, 2015 (GMT -0600)
Harvey | Change Station
CLOSE
Current Station
Airport
Location: Harvey,
Elevation: 1608 ft
Nearby Weather Stations
Active Advisory: Special Statement

Elev 1608 ft 47.79 °N, 99.93 °W | Updated 13 minutes ago

Clear
Clear
28 °F
Feels Like 17 °F
N
16
Wind Variable Wind from WSW

Today
High -- | Low -- °F
--% Chance of Precip.
Yesterday
High -- | Low -- °F
Precip. -- in
8:10 AM 5:38 PM
Waxing Gibbous, 84% visible
Pressure 30.13 in
Visibility 10.0 miles
Clouds Clear
Windchill 17 °F
Dew Point 23 °F
Humidity 80%
Rainfall 0.00 in
Snow Depth Not available.
UV 2 out of 12
Pollen .10 out of 12
Air Quality Not available.
Flu Activity Not available.
METAR K5H4 301735Z AUTO 24014KT 10SM CLR M02/M05 A3013 RMK AO2

More Conditions Fewer Conditions

Pressure 30.13 in
Visibility 10.0 miles
Clouds Clear
Windchill 17 °F
Dew Point 23 °F
Humidity 80%
Rainfall 0.00 in
Snow Depth Not available.
UV 2 out of 12
Pollen .10 out of 12
Air Quality Not available.
Flu Activity Not available.
METAR K5H4 301735Z AUTO 24014KT 10SM CLR M02/M05 A3013 RMK AO2

More Conditions Fewer Conditions

10-Day Weather Forecast

Almanac

Astronomy

Jan. 30, 2015 Rise Set
Actual Time
Civil Twilight
Nautical Twilight
Astronomical Twilight
Moon
Length of Visible Light
Length of Day
Tomorrow will be .
, % of the Moon is Illuminated

Today's Extremes

State Highs State Lows

Community

WunderPhotos

Upload Photos

1,791,835 photos uploaded!

WunderBlogs® & News

Nearby

Air Quality

  Air Quality AQ Index Pollutant
Not available.

Snow Depth

Station Depth Elevation

Earthquake Activity

City Distance Mag. Time & Date
Minimum magnitude displayed is 2.5.

Coastal Water Temperatures

Place Temperature

Nearby Weather Stations